ブエノスアイレス/エセイサ の空港の天気 - METARとTAF

エセイサ国際空港 ( SAEZ / EZE ) - アルゼンチン ブエノスアイレス州、Ezeiza
飛行場実況気象(Metar)
観測時間06/25 10:00 ART (06/25 13:00 UTC)
風向・風速北西 4m/s
視程10km以上
天気現象
なし
気温7℃
湿度53%
気圧1017hPa
METARSAEZ 251300Z 32008KT CAVOK 07/M02 Q1017 NOSIG
過去の天気等 Google飛行場航空写真 Wunderground天気予報

過去48時間のMETAR

飛行場予報(TAF)
発表時間: 6/25 08:00 ART (6/25 11:00 UTC)
予報対象時間: 25日9時 ART ~ 26日9時 ART
風向・風速西北西 5m/s
視程10km以上
なし
25日21時 ART ~ 25日24時 ART に徐々に
風向・風速西 3m/s
26日6時 ART ~ 26日9時 ART に徐々に
風向・風速北北西 3m/s
TAF SAEZ 251100Z 2512/2612 30010KT CAVOK TX13/2518Z TN03/2512Z
BECMG 2600/2603 27005KT
BECMG 2609/2612 34005KT